sensor_id;sensor_type;location;lat;lon;timestamp;P1;durP1;ratioP1;P2;durP2;ratioP2
4754;SDS011;2391;47.212;7.542;2022-08-20T00:00:47;18.73;;;11.77;;
4754;SDS011;2391;47.212;7.542;2022-08-20T00:03:22;14.90;;;11.87;;
4754;SDS011;2391;47.212;7.542;2022-08-20T00:05:50;12.50;;;11.20;;
4754;SDS011;2391;47.212;7.542;2022-08-20T00:08:19;16.83;;;13.20;;
4754;SDS011;2391;47.212;7.542;2022-08-20T00:10:46;15.00;;;12.57;;
4754;SDS011;2391;47.212;7.542;2022-08-20T00:13:16;14.33;;;12.30;;
4754;SDS011;2391;47.212;7.542;2022-08-20T00:15:43;16.07;;;12.60;;
4754;SDS011;2391;47.212;7.542;2022-08-20T00:18:09;14.03;;;12.63;;
4754;SDS011;2391;47.212;7.542;2022-08-20T00:20:38;12.97;;;11.57;;
4754;SDS011;2391;47.212;7.542;2022-08-20T00:23:05;15.13;;;12.60;;
4754;SDS011;2391;47.212;7.542;2022-08-20T00:25:31;14.83;;;12.43;;
4754;SDS011;2391;47.212;7.542;2022-08-20T00:27:57;15.50;;;12.63;;
4754;SDS011;2391;47.212;7.542;2022-08-20T00:30:24;16.13;;;13.20;;
4754;SDS011;2391;47.212;7.542;2022-08-20T00:32:52;13.53;;;11.70;;
4754;SDS011;2391;47.212;7.542;2022-08-20T00:35:21;18.70;;;13.60;;
4754;SDS011;2391;47.212;7.542;2022-08-20T00:37:49;19.70;;;12.63;;
4754;SDS011;2391;47.212;7.542;2022-08-20T00:40:17;13.37;;;11.30;;
4754;SDS011;2391;47.212;7.542;2022-08-20T00:42:48;20.37;;;12.60;;
4754;SDS011;2391;47.212;7.542;2022-08-20T00:45:15;16.63;;;12.10;;
4754;SDS011;2391;47.212;7.542;2022-08-20T00:47:42;16.47;;;12.40;;
4754;SDS011;2391;47.212;7.542;2022-08-20T00:50:13;17.27;;;12.30;;
4754;SDS011;2391;47.212;7.542;2022-08-20T00:52:42;14.77;;;11.80;;
4754;SDS011;2391;47.212;7.542;2022-08-20T00:55:10;18.27;;;12.40;;
4754;SDS011;2391;47.212;7.542;2022-08-20T00:57:39;12.50;;;10.77;;
4754;SDS011;2391;47.212;7.542;2022-08-20T01:00:09;15.13;;;12.73;;
4754;SDS011;2391;47.212;7.542;2022-08-20T01:02:38;15.63;;;12.40;;
4754;SDS011;2391;47.212;7.542;2022-08-20T01:05:06;16.43;;;11.30;;
4754;SDS011;2391;47.212;7.542;2022-08-20T01:07:34;15.20;;;12.73;;
4754;SDS011;2391;47.212;7.542;2022-08-20T01:10:07;16.87;;;14.00;;
4754;SDS011;2391;47.212;7.542;2022-08-20T01:12:31;19.93;;;13.37;;
4754;SDS011;2391;47.212;7.542;2022-08-20T01:14:58;21.33;;;13.73;;
4754;SDS011;2391;47.212;7.542;2022-08-20T01:17:27;15.20;;;11.87;;
4754;SDS011;2391;47.212;7.542;2022-08-20T01:22:27;13.97;;;11.60;;
4754;SDS011;2391;47.212;7.542;2022-08-20T01:28:08;16.07;;;12.73;;
4754;SDS011;2391;47.212;7.542;2022-08-20T01:30:36;16.87;;;12.70;;
4754;SDS011;2391;47.212;7.542;2022-08-20T01:33:03;13.30;;;11.87;;
4754;SDS011;2391;47.212;7.542;2022-08-20T01:35:33;20.63;;;12.73;;
4754;SDS011;2391;47.212;7.542;2022-08-20T01:38:03;15.10;;;11.90;;
4754;SDS011;2391;47.212;7.542;2022-08-20T01:43:34;17.20;;;12.27;;
4754;SDS011;2391;47.212;7.542;2022-08-20T01:46:00;14.87;;;11.73;;
4754;SDS011;2391;47.212;7.542;2022-08-20T01:48:26;14.30;;;12.10;;
4754;SDS011;2391;47.212;7.542;2022-08-20T01:50:56;12.17;;;10.57;;
4754;SDS011;2391;47.212;7.542;2022-08-20T01:53:27;14.67;;;11.50;;
4754;SDS011;2391;47.212;7.542;2022-08-20T01:55:54;16.43;;;11.90;;
4754;SDS011;2391;47.212;7.542;2022-08-20T01:58:21;13.10;;;10.20;;
4754;SDS011;2391;47.212;7.542;2022-08-20T02:00:47;15.70;;;11.80;;
4754;SDS011;2391;47.212;7.542;2022-08-20T02:03:12;17.70;;;11.43;;
4754;SDS011;2391;47.212;7.542;2022-08-20T02:05:38;12.03;;;10.83;;
4754;SDS011;2391;47.212;7.542;2022-08-20T02:08:04;13.77;;;12.03;;
4754;SDS011;2391;47.212;7.542;2022-08-20T02:10:30;15.57;;;12.70;;
4754;SDS011;2391;47.212;7.542;2022-08-20T02:12:57;16.70;;;12.60;;
4754;SDS011;2391;47.212;7.542;2022-08-20T02:15:24;16.60;;;12.87;;
4754;SDS011;2391;47.212;7.542;2022-08-20T02:17:50;16.63;;;13.20;;
4754;SDS011;2391;47.212;7.542;2022-08-20T02:20:17;18.50;;;14.37;;
4754;SDS011;2391;47.212;7.542;2022-08-20T02:22:47;19.30;;;14.20;;
4754;SDS011;2391;47.212;7.542;2022-08-20T02:25:16;15.33;;;13.30;;
4754;SDS011;2391;47.212;7.542;2022-08-20T02:27:43;15.63;;;13.37;;
4754;SDS011;2391;47.212;7.542;2022-08-20T02:30:12;16.70;;;14.23;;
4754;SDS011;2391;47.212;7.542;2022-08-20T02:32:43;16.67;;;13.70;;
4754;SDS011;2391;47.212;7.542;2022-08-20T02:35:10;15.10;;;13.50;;
4754;SDS011;2391;47.212;7.542;2022-08-20T02:37:38;16.23;;;13.40;;
4754;SDS011;2391;47.212;7.542;2022-08-20T02:40:06;17.57;;;14.20;;
4754;SDS011;2391;47.212;7.542;2022-08-20T02:42:34;19.37;;;14.77;;
4754;SDS011;2391;47.212;7.542;2022-08-20T02:45:02;17.73;;;14.37;;
4754;SDS011;2391;47.212;7.542;2022-08-20T02:47:30;18.60;;;14.83;;
4754;SDS011;2391;47.212;7.542;2022-08-20T02:49:56;16.43;;;14.23;;
4754;SDS011;2391;47.212;7.542;2022-08-20T02:52:24;19.10;;;16.00;;
4754;SDS011;2391;47.212;7.542;2022-08-20T02:54:50;18.27;;;15.43;;
4754;SDS011;2391;47.212;7.542;2022-08-20T02:57:17;19.37;;;14.00;;
4754;SDS011;2391;47.212;7.542;2022-08-20T02:59:46;21.40;;;15.37;;
4754;SDS011;2391;47.212;7.542;2022-08-20T03:02:13;20.00;;;15.50;;
4754;SDS011;2391;47.212;7.542;2022-08-20T03:04:40;18.20;;;14.30;;
4754;SDS011;2391;47.212;7.542;2022-08-20T03:07:07;20.20;;;15.30;;
4754;SDS011;2391;47.212;7.542;2022-08-20T03:09:35;20.43;;;15.57;;
4754;SDS011;2391;47.212;7.542;2022-08-20T03:12:01;21.23;;;16.50;;
4754;SDS011;2391;47.212;7.542;2022-08-20T03:14:28;21.20;;;17.20;;
4754;SDS011;2391;47.212;7.542;2022-08-20T03:16:54;22.50;;;16.47;;
4754;SDS011;2391;47.212;7.542;2022-08-20T03:19:20;19.90;;;16.27;;
4754;SDS011;2391;47.212;7.542;2022-08-20T03:21:47;19.60;;;15.57;;
4754;SDS011;2391;47.212;7.542;2022-08-20T03:24:13;21.30;;;16.10;;
4754;SDS011;2391;47.212;7.542;2022-08-20T03:26:39;20.73;;;15.63;;
4754;SDS011;2391;47.212;7.542;2022-08-20T03:29:06;24.37;;;15.90;;
4754;SDS011;2391;47.212;7.542;2022-08-20T03:31:31;22.60;;;15.07;;
4754;SDS011;2391;47.212;7.542;2022-08-20T03:33:58;19.03;;;15.60;;
4754;SDS011;2391;47.212;7.542;2022-08-20T03:36:24;21.47;;;15.63;;
4754;SDS011;2391;47.212;7.542;2022-08-20T03:38:52;20.33;;;15.97;;
4754;SDS011;2391;47.212;7.542;2022-08-20T03:41:18;19.93;;;15.00;;
4754;SDS011;2391;47.212;7.542;2022-08-20T03:43:44;21.27;;;16.00;;
4754;SDS011;2391;47.212;7.542;2022-08-20T03:46:10;20.03;;;15.50;;
4754;SDS011;2391;47.212;7.542;2022-08-20T03:48:36;21.97;;;16.63;;
4754;SDS011;2391;47.212;7.542;2022-08-20T03:51:03;22.03;;;16.10;;
4754;SDS011;2391;47.212;7.542;2022-08-20T03:53:29;23.70;;;16.83;;
4754;SDS011;2391;47.212;7.542;2022-08-20T03:55:56;22.40;;;16.43;;
4754;SDS011;2391;47.212;7.542;2022-08-20T03:58:26;23.37;;;15.60;;
4754;SDS011;2391;47.212;7.542;2022-08-20T04:00:53;19.23;;;15.97;;
4754;SDS011;2391;47.212;7.542;2022-08-20T04:03:21;23.80;;;17.90;;
4754;SDS011;2391;47.212;7.542;2022-08-20T04:05:48;16.93;;;14.07;;
4754;SDS011;2391;47.212;7.542;2022-08-20T04:08:18;15.77;;;11.93;;
4754;SDS011;2391;47.212;7.542;2022-08-20T04:10:44;16.87;;;13.17;;
4754;SDS011;2391;47.212;7.542;2022-08-20T04:13:11;14.60;;;13.00;;
4754;SDS011;2391;47.212;7.542;2022-08-20T04:15:38;16.50;;;11.87;;
4754;SDS011;2391;47.212;7.542;2022-08-20T04:18:05;17.27;;;11.80;;
4754;SDS011;2391;47.212;7.542;2022-08-20T04:20:34;12.93;;;11.23;;
4754;SDS011;2391;47.212;7.542;2022-08-20T04:23:01;12.97;;;11.57;;
4754;SDS011;2391;47.212;7.542;2022-08-20T04:25:29;13.57;;;10.70;;
4754;SDS011;2391;47.212;7.542;2022-08-20T04:27:56;14.57;;;11.00;;
4754;SDS011;2391;47.212;7.542;2022-08-20T04:30:23;11.40;;;9.90;;
4754;SDS011;2391;47.212;7.542;2022-08-20T04:32:50;12.70;;;10.57;;
4754;SDS011;2391;47.212;7.542;2022-08-20T04:35:16;10.73;;;9.63;;
4754;SDS011;2391;47.212;7.542;2022-08-20T04:37:43;9.50;;;8.47;;
4754;SDS011;2391;47.212;7.542;2022-08-20T04:40:12;11.60;;;9.77;;
4754;SDS011;2391;47.212;7.542;2022-08-20T04:42:58;11.13;;;8.67;;
4754;SDS011;2391;47.212;7.542;2022-08-20T04:45:24;10.40;;;9.17;;
4754;SDS011;2391;47.212;7.542;2022-08-20T04:47:51;11.70;;;9.37;;
4754;SDS011;2391;47.212;7.542;2022-08-20T04:50:17;11.20;;;10.10;;
4754;SDS011;2391;47.212;7.542;2022-08-20T04:52:45;10.73;;;9.63;;
4754;SDS011;2391;47.212;7.542;2022-08-20T04:55:14;10.10;;;9.10;;
4754;SDS011;2391;47.212;7.542;2022-08-20T04:57:41;12.73;;;10.27;;
4754;SDS011;2391;47.212;7.542;2022-08-20T05:00:10;10.10;;;9.10;;
4754;SDS011;2391;47.212;7.542;2022-08-20T05:02:40;10.63;;;9.53;;
4754;SDS011;2391;47.212;7.542;2022-08-20T05:05:07;12.87;;;9.97;;
4754;SDS011;2391;47.212;7.542;2022-08-20T05:07:42;12.30;;;10.40;;
4754;SDS011;2391;47.212;7.542;2022-08-20T05:10:06;11.13;;;9.17;;
4754;SDS011;2391;47.212;7.542;2022-08-20T05:12:33;11.13;;;9.53;;
4754;SDS011;2391;47.212;7.542;2022-08-20T05:14:59;14.23;;;11.00;;
4754;SDS011;2391;47.212;7.542;2022-08-20T05:17:25;13.00;;;10.63;;
4754;SDS011;2391;47.212;7.542;2022-08-20T05:19:51;10.30;;;9.30;;
4754;SDS011;2391;47.212;7.542;2022-08-20T05:22:17;16.53;;;10.70;;
4754;SDS011;2391;47.212;7.542;2022-08-20T05:24:44;11.20;;;9.40;;
4754;SDS011;2391;47.212;7.542;2022-08-20T05:27:10;12.57;;;9.93;;
4754;SDS011;2391;47.212;7.542;2022-08-20T05:29:36;11.07;;;9.50;;
4754;SDS011;2391;47.212;7.542;2022-08-20T05:32:02;11.37;;;10.23;;
4754;SDS011;2391;47.212;7.542;2022-08-20T05:34:28;10.10;;;9.07;;
4754;SDS011;2391;47.212;7.542;2022-08-20T05:36:54;10.53;;;9.30;;
4754;SDS011;2391;47.212;7.542;2022-08-20T05:39:21;9.60;;;8.63;;
4754;SDS011;2391;47.212;7.542;2022-08-20T05:41:47;10.20;;;9.10;;
4754;SDS011;2391;47.212;7.542;2022-08-20T05:44:15;12.97;;;9.23;;
4754;SDS011;2391;47.212;7.542;2022-08-20T05:46:43;15.00;;;10.20;;
4754;SDS011;2391;47.212;7.542;2022-08-20T05:49:11;15.80;;;10.77;;
4754;SDS011;2391;47.212;7.542;2022-08-20T05:51:40;15.97;;;9.90;;
4754;SDS011;2391;47.212;7.542;2022-08-20T05:54:05;15.60;;;11.47;;
4754;SDS011;2391;47.212;7.542;2022-08-20T05:56:32;12.80;;;11.33;;
4754;SDS011;2391;47.212;7.542;2022-08-20T05:58:59;16.07;;;12.27;;
4754;SDS011;2391;47.212;7.542;2022-08-20T06:01:29;13.97;;;11.80;;
4754;SDS011;2391;47.212;7.542;2022-08-20T06:03:57;11.97;;;10.70;;
4754;SDS011;2391;47.212;7.542;2022-08-20T06:06:41;19.60;;;11.70;;
4754;SDS011;2391;47.212;7.542;2022-08-20T06:09:07;13.83;;;11.03;;
4754;SDS011;2391;47.212;7.542;2022-08-20T06:11:33;11.70;;;10.50;;
4754;SDS011;2391;47.212;7.542;2022-08-20T06:13:59;12.90;;;10.90;;
4754;SDS011;2391;47.212;7.542;2022-08-20T06:16:25;10.93;;;9.73;;
4754;SDS011;2391;47.212;7.542;2022-08-20T06:18:51;10.23;;;9.23;;
4754;SDS011;2391;47.212;7.542;2022-08-20T06:21:17;9.80;;;8.80;;
4754;SDS011;2391;47.212;7.542;2022-08-20T06:23:43;10.97;;;9.83;;
4754;SDS011;2391;47.212;7.542;2022-08-20T06:26:10;13.40;;;10.10;;
4754;SDS011;2391;47.212;7.542;2022-08-20T06:28:36;13.20;;;9.90;;
4754;SDS011;2391;47.212;7.542;2022-08-20T06:31:02;11.13;;;9.93;;
4754;SDS011;2391;47.212;7.542;2022-08-20T06:33:36;11.90;;;10.63;;
4754;SDS011;2391;47.212;7.542;2022-08-20T06:36:02;14.33;;;11.50;;
4754;SDS011;2391;47.212;7.542;2022-08-20T06:38:29;13.43;;;11.50;;
4754;SDS011;2391;47.212;7.542;2022-08-20T06:40:57;13.87;;;11.60;;
4754;SDS011;2391;47.212;7.542;2022-08-20T06:43:24;15.47;;;13.10;;
4754;SDS011;2391;47.212;7.542;2022-08-20T07:09:06;11.67;;;9.70;;
4754;SDS011;2391;47.212;7.542;2022-08-20T07:11:32;17.60;;;11.00;;
4754;SDS011;2391;47.212;7.542;2022-08-20T07:13:59;13.43;;;11.70;;
4754;SDS011;2391;47.212;7.542;2022-08-20T07:16:27;16.43;;;12.40;;
4754;SDS011;2391;47.212;7.542;2022-08-20T07:18:53;14.47;;;12.40;;
4754;SDS011;2391;47.212;7.542;2022-08-20T07:21:19;17.13;;;11.93;;
4754;SDS011;2391;47.212;7.542;2022-08-20T07:23:45;13.83;;;11.93;;
4754;SDS011;2391;47.212;7.542;2022-08-20T07:26:13;12.93;;;10.77;;
4754;SDS011;2391;47.212;7.542;2022-08-20T07:28:39;13.23;;;10.53;;
4754;SDS011;2391;47.212;7.542;2022-08-20T07:31:05;14.43;;;11.43;;
4754;SDS011;2391;47.212;7.542;2022-08-20T07:33:49;12.67;;;11.37;;
4754;SDS011;2391;47.212;7.542;2022-08-20T07:36:16;11.37;;;10.20;;
4754;SDS011;2391;47.212;7.542;2022-08-20T07:38:42;14.40;;;11.00;;
4754;SDS011;2391;47.212;7.542;2022-08-20T07:41:10;12.50;;;11.13;;
4754;SDS011;2391;47.212;7.542;2022-08-20T07:43:37;14.73;;;11.83;;
4754;SDS011;2391;47.212;7.542;2022-08-20T07:46:04;13.17;;;11.00;;
4754;SDS011;2391;47.212;7.542;2022-08-20T07:48:32;10.70;;;9.63;;
4754;SDS011;2391;47.212;7.542;2022-08-20T07:50:59;11.53;;;9.60;;
4754;SDS011;2391;47.212;7.542;2022-08-20T07:53:30;11.10;;;10.00;;
4754;SDS011;2391;47.212;7.542;2022-08-20T07:55:59;10.80;;;9.70;;
4754;SDS011;2391;47.212;7.542;2022-08-20T07:58:27;11.33;;;8.87;;
4754;SDS011;2391;47.212;7.542;2022-08-20T08:00:54;7.53;;;6.83;;
4754;SDS011;2391;47.212;7.542;2022-08-20T08:03:20;6.20;;;5.70;;
4754;SDS011;2391;47.212;7.542;2022-08-20T08:05:48;6.60;;;5.90;;
4754;SDS011;2391;47.212;7.542;2022-08-20T08:08:18;5.53;;;4.87;;
4754;SDS011;2391;47.212;7.542;2022-08-20T08:10:46;4.33;;;3.93;;
4754;SDS011;2391;47.212;7.542;2022-08-20T08:13:13;4.20;;;3.90;;
4754;SDS011;2391;47.212;7.542;2022-08-20T08:15:41;3.27;;;3.03;;
4754;SDS011;2391;47.212;7.542;2022-08-20T08:18:13;2.00;;;1.90;;
4754;SDS011;2391;47.212;7.542;2022-08-20T08:20:42;2.57;;;2.37;;
4754;SDS011;2391;47.212;7.542;2022-08-20T08:23:10;1.70;;;1.60;;
4754;SDS011;2391;47.212;7.542;2022-08-20T08:25:41;1.73;;;1.63;;
4754;SDS011;2391;47.212;7.542;2022-08-20T08:28:07;1.50;;;1.40;;
4754;SDS011;2391;47.212;7.542;2022-08-20T08:30:37;1.33;;;1.23;;
4754;SDS011;2391;47.212;7.542;2022-08-20T08:33:05;1.67;;;1.50;;
4754;SDS011;2391;47.212;7.542;2022-08-20T08:35:50;1.20;;;1.10;;
4754;SDS011;2391;47.212;7.542;2022-08-20T08:38:16;1.47;;;1.37;;
4754;SDS011;2391;47.212;7.542;2022-08-20T08:40:42;1.60;;;1.50;;
4754;SDS011;2391;47.212;7.542;2022-08-20T08:43:10;7.23;;;1.40;;
4754;SDS011;2391;47.212;7.542;2022-08-20T08:45:39;1.60;;;1.50;;
4754;SDS011;2391;47.212;7.542;2022-08-20T08:48:10;1.30;;;1.20;;
4754;SDS011;2391;47.212;7.542;2022-08-20T08:50:38;1.00;;;1.00;;
4754;SDS011;2391;47.212;7.542;2022-08-20T08:53:10;1.77;;;1.53;;
4754;SDS011;2391;47.212;7.542;2022-08-20T08:55:42;1.40;;;1.20;;
4754;SDS011;2391;47.212;7.542;2022-08-20T08:58:07;1.40;;;1.30;;
4754;SDS011;2391;47.212;7.542;2022-08-20T09:00:34;1.00;;;1.00;;
4754;SDS011;2391;47.212;7.542;2022-08-20T09:03:02;0.90;;;0.90;;
4754;SDS011;2391;47.212;7.542;2022-08-20T09:05:35;1.67;;;1.03;;
4754;SDS011;2391;47.212;7.542;2022-08-20T09:08:03;1.50;;;1.40;;
4754;SDS011;2391;47.212;7.542;2022-08-20T09:10:31;1.20;;;1.20;;
4754;SDS011;2391;47.212;7.542;2022-08-20T09:12:57;0.90;;;0.90;;
4754;SDS011;2391;47.212;7.542;2022-08-20T09:15:24;6.10;;;1.00;;
4754;SDS011;2391;47.212;7.542;2022-08-20T09:17:50;0.97;;;0.97;;
4754;SDS011;2391;47.212;7.542;2022-08-20T09:20:16;0.93;;;0.90;;
4754;SDS011;2391;47.212;7.542;2022-08-20T09:22:42;0.70;;;0.70;;
4754;SDS011;2391;47.212;7.542;2022-08-20T09:25:08;0.90;;;0.70;;
4754;SDS011;2391;47.212;7.542;2022-08-20T09:27:34;0.70;;;0.70;;
4754;SDS011;2391;47.212;7.542;2022-08-20T09:30:00;0.80;;;0.80;;
4754;SDS011;2391;47.212;7.542;2022-08-20T09:32:26;0.93;;;0.93;;
4754;SDS011;2391;47.212;7.542;2022-08-20T09:34:53;1.00;;;1.00;;
4754;SDS011;2391;47.212;7.542;2022-08-20T09:37:27;3.80;;;1.00;;
4754;SDS011;2391;47.212;7.542;2022-08-20T09:39:53;5.53;;;1.40;;
4754;SDS011;2391;47.212;7.542;2022-08-20T09:42:21;0.90;;;0.90;;
4754;SDS011;2391;47.212;7.542;2022-08-20T09:44:48;1.00;;;1.00;;
4754;SDS011;2391;47.212;7.542;2022-08-20T09:47:15;0.83;;;0.83;;
4754;SDS011;2391;47.212;7.542;2022-08-20T09:49:42;0.80;;;0.80;;
4754;SDS011;2391;47.212;7.542;2022-08-20T09:52:09;0.90;;;0.90;;
4754;SDS011;2391;47.212;7.542;2022-08-20T09:54:38;1.03;;;0.93;;
4754;SDS011;2391;47.212;7.542;2022-08-20T09:57:05;1.40;;;1.30;;
4754;SDS011;2391;47.212;7.542;2022-08-20T09:59:32;1.20;;;1.10;;
4754;SDS011;2391;47.212;7.542;2022-08-20T10:01:59;1.13;;;1.03;;
4754;SDS011;2391;47.212;7.542;2022-08-20T10:04:25;1.30;;;1.20;;
4754;SDS011;2391;47.212;7.542;2022-08-20T10:06:51;2.30;;;1.20;;
4754;SDS011;2391;47.212;7.542;2022-08-20T10:09:17;1.20;;;1.10;;
4754;SDS011;2391;47.212;7.542;2022-08-20T10:11:44;1.50;;;1.40;;
4754;SDS011;2391;47.212;7.542;2022-08-20T10:14:10;1.70;;;1.40;;
4754;SDS011;2391;47.212;7.542;2022-08-20T10:16:36;2.43;;;1.40;;
4754;SDS011;2391;47.212;7.542;2022-08-20T10:19:02;1.40;;;1.30;;
4754;SDS011;2391;47.212;7.542;2022-08-20T10:21:30;1.20;;;1.10;;
4754;SDS011;2391;47.212;7.542;2022-08-20T10:23:57;1.63;;;1.53;;
4754;SDS011;2391;47.212;7.542;2022-08-20T10:26:23;2.30;;;0.90;;
4754;SDS011;2391;47.212;7.542;2022-08-20T10:28:49;1.10;;;1.10;;
4754;SDS011;2391;47.212;7.542;2022-08-20T10:31:16;1.30;;;1.20;;
4754;SDS011;2391;47.212;7.542;2022-08-20T10:33:42;1.10;;;1.10;;
4754;SDS011;2391;47.212;7.542;2022-08-20T10:36:13;1.10;;;1.10;;
4754;SDS011;2391;47.212;7.542;2022-08-20T10:38:41;1.10;;;1.10;;
4754;SDS011;2391;47.212;7.542;2022-08-20T10:41:08;0.90;;;0.90;;
4754;SDS011;2391;47.212;7.542;2022-08-20T10:43:34;1.50;;;1.40;;
4754;SDS011;2391;47.212;7.542;2022-08-20T10:46:01;1.37;;;1.27;;
4754;SDS011;2391;47.212;7.542;2022-08-20T10:48:27;0.97;;;0.97;;
4754;SDS011;2391;47.212;7.542;2022-08-20T10:50:53;1.00;;;1.00;;
4754;SDS011;2391;47.212;7.542;2022-08-20T10:53:19;1.37;;;0.90;;
4754;SDS011;2391;47.212;7.542;2022-08-20T10:55:45;0.93;;;0.80;;
4754;SDS011;2391;47.212;7.542;2022-08-20T10:58:12;0.90;;;0.90;;
4754;SDS011;2391;47.212;7.542;2022-08-20T11:00:38;0.70;;;0.70;;
4754;SDS011;2391;47.212;7.542;2022-08-20T11:03:05;0.80;;;0.80;;
4754;SDS011;2391;47.212;7.542;2022-08-20T11:05:31;1.63;;;0.90;;
4754;SDS011;2391;47.212;7.542;2022-08-20T11:07:57;1.37;;;0.80;;
4754;SDS011;2391;47.212;7.542;2022-08-20T11:10:27;1.00;;;1.00;;
4754;SDS011;2391;47.212;7.542;2022-08-20T11:12:55;1.00;;;1.00;;
4754;SDS011;2391;47.212;7.542;2022-08-20T11:15:21;1.17;;;1.00;;
4754;SDS011;2391;47.212;7.542;2022-08-20T11:17:47;1.10;;;1.00;;
4754;SDS011;2391;47.212;7.542;2022-08-20T11:20:15;0.90;;;0.90;;
4754;SDS011;2391;47.212;7.542;2022-08-20T11:22:43;1.20;;;1.10;;
4754;SDS011;2391;47.212;7.542;2022-08-20T11:25:09;1.10;;;1.00;;
4754;SDS011;2391;47.212;7.542;2022-08-20T11:27:37;0.90;;;0.90;;
4754;SDS011;2391;47.212;7.542;2022-08-20T11:30:06;0.90;;;0.90;;
4754;SDS011;2391;47.212;7.542;2022-08-20T11:32:33;0.70;;;0.70;;
4754;SDS011;2391;47.212;7.542;2022-08-20T11:35:00;2.20;;;0.90;;
4754;SDS011;2391;47.212;7.542;2022-08-20T11:37:26;1.00;;;1.00;;
4754;SDS011;2391;47.212;7.542;2022-08-20T11:39:52;2.93;;;0.93;;
4754;SDS011;2391;47.212;7.542;2022-08-20T11:42:18;1.10;;;1.00;;
4754;SDS011;2391;47.212;7.542;2022-08-20T11:44:44;0.80;;;0.80;;
4754;SDS011;2391;47.212;7.542;2022-08-20T11:47:18;1.00;;;1.00;;
4754;SDS011;2391;47.212;7.542;2022-08-20T11:55:41;4.30;;;0.90;;
4754;SDS011;2391;47.212;7.542;2022-08-20T11:58:11;0.90;;;0.90;;
4754;SDS011;2391;47.212;7.542;2022-08-20T12:03:22;1.87;;;0.73;;
4754;SDS011;2391;47.212;7.542;2022-08-20T12:05:51;1.17;;;0.90;;
4754;SDS011;2391;47.212;7.542;2022-08-20T12:08:17;1.03;;;0.97;;
4754;SDS011;2391;47.212;7.542;2022-08-20T12:10:43;0.77;;;0.70;;
4754;SDS011;2391;47.212;7.542;2022-08-20T12:13:09;0.80;;;0.80;;
4754;SDS011;2391;47.212;7.542;2022-08-20T12:15:35;0.60;;;0.60;;
4754;SDS011;2391;47.212;7.542;2022-08-20T12:18:09;0.70;;;0.70;;
4754;SDS011;2391;47.212;7.542;2022-08-20T12:20:33;0.70;;;0.70;;
4754;SDS011;2391;47.212;7.542;2022-08-20T12:23:00;0.60;;;0.60;;
4754;SDS011;2391;47.212;7.542;2022-08-20T12:25:27;0.73;;;0.73;;
4754;SDS011;2391;47.212;7.542;2022-08-20T12:34:12;0.70;;;0.70;;
4754;SDS011;2391;47.212;7.542;2022-08-20T12:36:38;1.47;;;0.57;;
4754;SDS011;2391;47.212;7.542;2022-08-20T12:39:04;4.63;;;0.73;;
4754;SDS011;2391;47.212;7.542;2022-08-20T12:41:30;0.60;;;0.60;;
4754;SDS011;2391;47.212;7.542;2022-08-20T12:47:14;0.60;;;0.60;;
4754;SDS011;2391;47.212;7.542;2022-08-20T12:49:58;0.50;;;0.50;;
4754;SDS011;2391;47.212;7.542;2022-08-20T13:01:43;0.50;;;0.50;;
4754;SDS011;2391;47.212;7.542;2022-08-20T13:04:09;0.47;;;0.40;;
4754;SDS011;2391;47.212;7.542;2022-08-20T13:06:36;1.20;;;0.47;;
4754;SDS011;2391;47.212;7.542;2022-08-20T13:09:02;0.50;;;0.50;;
4754;SDS011;2391;47.212;7.542;2022-08-20T13:11:28;0.50;;;0.50;;
4754;SDS011;2391;47.212;7.542;2022-08-20T13:13:54;0.40;;;0.40;;
4754;SDS011;2391;47.212;7.542;2022-08-20T13:16:20;0.50;;;0.50;;
4754;SDS011;2391;47.212;7.542;2022-08-20T13:18:47;0.60;;;0.60;;
4754;SDS011;2391;47.212;7.542;2022-08-20T13:21:13;0.47;;;0.47;;
4754;SDS011;2391;47.212;7.542;2022-08-20T13:23:40;0.47;;;0.47;;
4754;SDS011;2391;47.212;7.542;2022-08-20T13:26:06;0.50;;;0.50;;
4754;SDS011;2391;47.212;7.542;2022-08-20T13:28:32;1.20;;;0.57;;
4754;SDS011;2391;47.212;7.542;2022-08-20T13:30:58;1.23;;;0.63;;
4754;SDS011;2391;47.212;7.542;2022-08-20T13:33:25;1.10;;;0.53;;
4754;SDS011;2391;47.212;7.542;2022-08-20T13:35:52;0.53;;;0.50;;
4754;SDS011;2391;47.212;7.542;2022-08-20T13:38:18;1.03;;;0.50;;
4754;SDS011;2391;47.212;7.542;2022-08-20T13:40:44;0.60;;;0.60;;
4754;SDS011;2391;47.212;7.542;2022-08-20T13:43:10;0.50;;;0.50;;
4754;SDS011;2391;47.212;7.542;2022-08-20T13:45:36;0.60;;;0.50;;
4754;SDS011;2391;47.212;7.542;2022-08-20T13:48:03;0.60;;;0.60;;
4754;SDS011;2391;47.212;7.542;2022-08-20T13:50:30;0.63;;;0.60;;
4754;SDS011;2391;47.212;7.542;2022-08-20T13:52:57;0.80;;;0.80;;
4754;SDS011;2391;47.212;7.542;2022-08-20T13:55:24;0.73;;;0.73;;
4754;SDS011;2391;47.212;7.542;2022-08-20T13:57:51;0.50;;;0.47;;
4754;SDS011;2391;47.212;7.542;2022-08-20T14:00:22;0.50;;;0.50;;
4754;SDS011;2391;47.212;7.542;2022-08-20T14:02:54;1.43;;;0.60;;
4754;SDS011;2391;47.212;7.542;2022-08-20T14:05:20;0.60;;;0.60;;
4754;SDS011;2391;47.212;7.542;2022-08-20T14:07:47;0.50;;;0.50;;
4754;SDS011;2391;47.212;7.542;2022-08-20T14:10:19;0.60;;;0.60;;
4754;SDS011;2391;47.212;7.542;2022-08-20T14:12:43;0.70;;;0.70;;
4754;SDS011;2391;47.212;7.542;2022-08-20T14:15:10;0.80;;;0.60;;
4754;SDS011;2391;47.212;7.542;2022-08-20T14:17:38;0.60;;;0.60;;
4754;SDS011;2391;47.212;7.542;2022-08-20T14:20:07;0.60;;;0.60;;
4754;SDS011;2391;47.212;7.542;2022-08-20T14:22:35;1.73;;;1.30;;
4754;SDS011;2391;47.212;7.542;2022-08-20T14:25:01;0.60;;;0.60;;
4754;SDS011;2391;47.212;7.542;2022-08-20T14:27:29;1.83;;;0.50;;
4754;SDS011;2391;47.212;7.542;2022-08-20T14:29:57;0.60;;;0.60;;
4754;SDS011;2391;47.212;7.542;2022-08-20T14:32:23;2.27;;;0.60;;
4754;SDS011;2391;47.212;7.542;2022-08-20T14:34:49;0.70;;;0.57;;
4754;SDS011;2391;47.212;7.542;2022-08-20T14:37:16;1.00;;;0.80;;
4754;SDS011;2391;47.212;7.542;2022-08-20T14:39:46;0.57;;;0.57;;
4754;SDS011;2391;47.212;7.542;2022-08-20T14:42:14;0.50;;;0.50;;
4754;SDS011;2391;47.212;7.542;2022-08-20T14:44:40;4.83;;;0.77;;
4754;SDS011;2391;47.212;7.542;2022-08-20T14:47:17;0.60;;;0.60;;
4754;SDS011;2391;47.212;7.542;2022-08-20T14:49:44;0.50;;;0.50;;
4754;SDS011;2391;47.212;7.542;2022-08-20T14:52:13;0.57;;;0.57;;
4754;SDS011;2391;47.212;7.542;2022-08-20T14:54:40;0.70;;;0.70;;
4754;SDS011;2391;47.212;7.542;2022-08-20T14:57:07;0.80;;;0.80;;
4754;SDS011;2391;47.212;7.542;2022-08-20T14:59:34;7.23;;;6.27;;
4754;SDS011;2391;47.212;7.542;2022-08-20T15:02:04;3.93;;;0.80;;
4754;SDS011;2391;47.212;7.542;2022-08-20T15:04:33;3.97;;;3.10;;
4754;SDS011;2391;47.212;7.542;2022-08-20T15:06:59;0.80;;;0.80;;
4754;SDS011;2391;47.212;7.542;2022-08-20T15:09:28;0.70;;;0.70;;
4754;SDS011;2391;47.212;7.542;2022-08-20T15:11:55;0.60;;;0.60;;
4754;SDS011;2391;47.212;7.542;2022-08-20T15:14:21;0.90;;;0.70;;
4754;SDS011;2391;47.212;7.542;2022-08-20T15:16:47;0.67;;;0.67;;
4754;SDS011;2391;47.212;7.542;2022-08-20T15:19:13;2.30;;;0.50;;
4754;SDS011;2391;47.212;7.542;2022-08-20T15:21:40;0.63;;;0.63;;
4754;SDS011;2391;47.212;7.542;2022-08-20T15:24:06;1.70;;;0.90;;
4754;SDS011;2391;47.212;7.542;2022-08-20T15:26:32;0.73;;;0.60;;
4754;SDS011;2391;47.212;7.542;2022-08-20T15:28:58;0.63;;;0.60;;
4754;SDS011;2391;47.212;7.542;2022-08-20T15:31:24;0.77;;;0.70;;
4754;SDS011;2391;47.212;7.542;2022-08-20T15:33:50;0.90;;;0.53;;
4754;SDS011;2391;47.212;7.542;2022-08-20T15:36:16;0.60;;;0.50;;
4754;SDS011;2391;47.212;7.542;2022-08-20T15:38:42;0.50;;;0.50;;
4754;SDS011;2391;47.212;7.542;2022-08-20T15:41:08;0.50;;;0.50;;
4754;SDS011;2391;47.212;7.542;2022-08-20T15:43:34;0.60;;;0.60;;
4754;SDS011;2391;47.212;7.542;2022-08-20T15:46:01;0.57;;;0.57;;
4754;SDS011;2391;47.212;7.542;2022-08-20T15:48:40;1.00;;;0.63;;
4754;SDS011;2391;47.212;7.542;2022-08-20T15:53:55;0.87;;;0.50;;
4754;SDS011;2391;47.212;7.542;2022-08-20T15:59:11;0.50;;;0.50;;
4754;SDS011;2391;47.212;7.542;2022-08-20T16:10:26;0.50;;;0.50;;
4754;SDS011;2391;47.212;7.542;2022-08-20T16:13:36;0.70;;;0.70;;
4754;SDS011;2391;47.212;7.542;2022-08-20T16:15:48;0.60;;;0.60;;
4754;SDS011;2391;47.212;7.542;2022-08-20T16:18:20;0.60;;;0.60;;